Martins Mills, Texas
Current Conditions -  °F | °C
As of 10:53 AM on Saturday 22 Nov 2014 (Local Time) from KTYR Reporting Station
Overcast Overcast  
Wind Chill: 66°   Ceiling: 2200
Heat Index: 66°   Visibility: 10mi
Dew Point: 55°   Wind: 10mph
Humidity: 68%   Direction: 180°S
Pressure: 30.08"   Gusts: NA
Location:  32.416°N, 95.6606°W
Report Text: KTYR 221653Z 18009KT 10SM OVC022 19/13 A3008 RMK AO2 SLP180 T01890128
Loading
Personal Weather Stations






























Interactive Weather Map New forecast layout! Learn more

10-Day Weather Forecast

Advertisements
Track Severe Weather on mobile